Flight Track Log - Related Links

Times and Time Zones

All times are in EDT time to prevent confusion due to time zone crossing. See the EJA929 flight status page for this flight to view local times or setup timezone preferences in your user account.

Time Position Orientation Groundspeed Altitude Reporting Facility
EDT Latitude Longitude Course Direction KTS MPH feet Rate Location/Type
Fri 07:08:01 PM 43.3669 -114.2183 285° West 264 304 13,900  Level Salt Lake Center
Fri 07:09:03 PM 43.3142 -114.2758 218° Southwest 259 298 17,700 3,194 Climbing Salt Lake Center
Fri 07:10:00 PM 43.2881 -114.7881 287° West  Level FlightAware Approximate
Fri 07:10:05 PM 43.3339 -114.3811 284° West 275 316 20,500  Level Salt Lake Center
Fri 07:11:00 PM 43.3191 -114.9311 283° West  Level FlightAware Approximate
Fri 07:11:07 PM 43.3725 -114.4869 297° West 327 376 21,700  Level Salt Lake Center
Fri 07:12:00 PM 43.3433 -115.0766 283° West  Level FlightAware Approximate
Fri 07:12:09 PM 43.4164 -114.6111 296° West 378 435 22,400  Level Salt Lake Center
Fri 07:13:00 PM 43.3709 -115.2210 285° West  Level FlightAware Approximate
Fri 07:13:11 PM 43.4706 -114.7683 295° West 405 466 24,200  Level Salt Lake Center
Fri 07:14:13 PM 43.5164 -114.9042 295° West 407 468 25,700 1,548 Climbing Salt Lake Center
Fri 07:15:15 PM 43.5731 -115.0689 295° West 423 487 27,400 1,452 Climbing Salt Lake Center
Fri 07:16:17 PM 43.6217 -115.2133 295° West 431 496 28,700 1,452 Climbing Salt Lake Center
Fri 07:17:19 PM 43.6797 -115.3839 295° West 438 504 30,400 1,742 Climbing Salt Lake Center
Fri 07:18:21 PM 43.7297 -115.5328 295° West 443 510 32,300 2,468 Climbing Salt Lake Center
Fri 07:19:23 PM 43.7847 -115.6983 295° West 422 486 35,500 1,790 Climbing Salt Lake Center
Fri 07:20:25 PM 43.8317 -115.8408 295° West 425 489 36,000 242 Climbing Salt Lake Center
Fri 07:21:27 PM 43.8831 -115.9967 295° West 461 531 36,000 293 Level Salt Lake Center
Fri 07:22:28 PM 43.9431 -116.1842 294° West 473 544 36,600 780 Climbing Salt Lake Center
Fri 07:23:30 PM 43.9953 -116.3436 295° West 471 542 37,600 1,016 Climbing Salt Lake Center
Fri 07:24:32 PM 44.0547 -116.5261 294° West 462 532 38,700 968 Climbing Salt Lake Center
Fri 07:25:34 PM 44.1050 -116.6836 294° West 462 532 39,600 629 Climbing Salt Lake Center
Fri 07:26:36 PM 44.1633 -116.8656 294° West 461 531 40,000 194 Climbing Salt Lake Center
Fri 07:27:38 PM 44.2139 -117.0275 294° West 472 543 40,000  Level Salt Lake Center
Fri 07:28:40 PM 44.2653 -117.1914 294° West 479 551 40,000  Level Salt Lake Center
Fri 07:29:42 PM 44.3256 -117.3825 294° West 481 554 40,000  Level Salt Lake Center
Fri 07:30:44 PM 44.3750 -117.5419 294° West 467 537 40,000  Level Salt Lake Center
Fri 07:31:46 PM 44.4297 -117.7200 293° West 447 514 40,000  Level Salt Lake Center
Fri 07:32:48 PM 44.4764 -117.8700 294° West 441 507 40,000  Level Salt Lake Center
Fri 07:33:50 PM 44.5303 -118.0475 293° West 443 510 40,000  Level Salt Lake Center
Fri 07:34:52 PM 44.5772 -118.2017 293° West 447 514 40,000  Level Salt Lake Center
Fri 07:35:54 PM 44.6297 -118.3769 293° West 449 517 40,000  Level Salt Lake Center
Fri 07:36:56 PM 44.6831 -118.5336 296° West 447 514 40,000  Level Salt Lake Center
Fri 07:37:58 PM 44.7233 -118.6967 289° West 444 511 40,000  Level Salt Lake Center
Fri 07:39:00 PM 44.7636 -118.8589 289° West 442 509 40,000  Level Salt Lake Center
Fri 07:40:02 PM 44.8044 -119.0203 290° West 440 506 40,000  Level Salt Lake Center
Fri 07:41:04 PM 44.8456 -119.1853 289° West 445 512 40,000  Level Salt Lake Center
Fri 07:42:06 PM 44.8939 -119.3822 289° West 445 512 40,000 -339 Level Salt Lake Center
Fri 07:43:08 PM 44.9344 -119.5472 289° West 447 514 39,300 -1,645 Descending Salt Lake Center
Fri 07:44:10 PM 44.9747 -119.7133 289° West 450 518 36,600 -2,535 Descending Salt Lake Center
Fri 07:45:30 PM 45.0253 -119.9250 289° West 452 520 33,300 -2,596 Descending Seattle Center
Fri 07:46:31 PM 45.0689 -120.1053 289° West 456 525 30,500 -2,557 Descending Seattle Center
Fri 07:47:32 PM 45.1061 -120.2628 289° West 438 504 28,100 -2,311 Descending Seattle Center
Fri 07:48:33 PM 45.1408 -120.4089 289° West 405 466 25,800 -2,439 Descending Seattle Center
Fri 07:49:35 PM 45.1878 -120.5794 291° West 393 452 23,100 -1,951 Descending Seattle Center
Fri 07:50:36 PM 45.2397 -120.7094 300° West 384 442 21,800 -1,328 Descending Seattle Center
Fri 07:51:37 PM 45.2894 -120.8381 299° West 375 432 20,400 -1,328 Descending Seattle Center
Fri 07:52:38 PM 45.3386 -120.9656 299° West 370 426 19,100 -1,220 Descending Seattle Center
Fri 07:53:40 PM 45.3861 -121.0922 298° West 367 422 17,900 -1,268 Descending Seattle Center
Fri 07:54:41 PM 45.4319 -121.2156 298° West 358 412 16,500 -1,279 Descending Seattle Center
Fri 07:55:42 PM 45.4564 -121.3428 285° West 339 390 15,300 -1,212 Descending Seattle Center
Fri 07:56:20 PM 45.4789 -121.4347 289° West 341 392 14,500 -1,725 Descending Seattle Center
Fri 07:57:02 PM 45.4986 -121.5378 285° West 350 403 13,000 -1,624 Descending Seattle Center
Fri 07:57:45 PM 45.5069 -121.6014 281° West 339 390 12,200 -1,385 Descending Seattle Center
Fri 07:58:46 PM 45.5278 -121.7089 285° West 297 342 10,600 -1,846 Descending Seattle Center
Fri 07:59:16 PM 45.5356 -121.7850 278° West 264 304 9,400 -2,164 Descending Seattle Center
Fri 07:59:47 PM 45.5292 -121.8369 260° West 277 319 8,400 -1,967 Descending Seattle Center
Fri 08:00:17 PM 45.5317 -121.8917 274° West 268 308 7,400 -1,475 Descending Seattle Center
Fri 08:00:48 PM 45.5278 -121.9361 263° West 271 312 6,900 -393 Descending Seattle Center
Fri 08:01:18 PM 45.5325 -121.9994 276° West 272 313 7,000 -581 Climbing Seattle Center
Fri 08:01:50 PM 45.5300 -122.0411 265° West 265 305 6,300 -1,343 Descending Seattle Center
Fri 08:02:25 PM 45.5336 -122.1103 274° West 261 300 5,500 -500 Descending Seattle Center
Fri 08:03:26 PM 45.5336 -122.2153 270° West 249 287 5,500 -645 Level Seattle Center
Fri 08:04:26 PM 45.5347 -122.3167 271° West 251 289 4,200 -1,438 Descending Seattle Center
Fri 08:05:27 PM 45.5356 -122.4058 271° West 221 254 2,600 -1,377 Descending Seattle Center
Fri 08:06:28 PM 45.5475 -122.4750 284° West 168 193 1,400 -934 Descending Seattle Center
Fri 08:07:29 PM 45.5653 -122.5200 299° West 119 137 700 -639 Descending Seattle Center
Fri 08:08:30 PM 45.5825 -122.5625 300° West 115 132 100 -590 Descending Seattle Center

Login

Don't have an account? Register now (free) for customized features, flight alerts, and more!